Stevens Point, WI (54481)

12:43 PM CDT on September 03, 2015 (GMT -0500)
Forest Circle neighborhood | | Change Station
CLOSE
Current Station
Personal Weather Station
Location: Stevens Point, WI
Elevation: 1099 ft
Nearby Weather Stations

Elev 1099 ft 44.50 °N, 89.53 °W | Updated 3 seconds ago

Overcast
Overcast
74.3 °F
Feels Like 74 °F
N
1.8
Wind Variable Wind from NNE
Gusts 2.5 mph

Today
High -- | Low -- °F
--% Chance of Precip.
Yesterday
High -- | Low -- °F
Precip. -- in
6:22 AM 7:31 PM
Waning Gibbous, 68% visible
Pressure 29.98 in
Visibility 10.0 miles
Clouds Overcast 1700 ft
Heat Index 74 °F
Dew Point 70 °F
Humidity 86%
Rainfall 0.14 in
Snow Depth Not available.
UV 3.0 out of 12
Pollen 6.40 out of 12
Air Quality Not available.
Flu Activity Not available.
METAR KSTE 031735Z AUTO 09006KT 10SM OVC017 22/18 A2998 RMK AO2 T02200181
Pressure 29.98 in
Visibility 10.0 miles
Clouds Overcast 1700 ft
Heat Index 74 °F
Dew Point 70 °F
Humidity 86%
Rainfall 0.14 in
Snow Depth Not available.
UV 3.0 out of 12
Pollen 6.40 out of 12
Air Quality Not available.
Flu Activity Not available.
METAR KSTE 031735Z AUTO 09006KT 10SM OVC017 22/18 A2998 RMK AO2 T02200181

10-Day Weather Forecast

×

Almanac

Astronomy

Sep. 03, 2015 Rise Set
Actual Time
Civil Twilight
Nautical Twilight
Astronomical Twilight
Moon
Length of Visible Light
Length of Day
Tomorrow will be .
, % of the Moon is Illuminated

Today's Extremes

State Highs State Lows

Community

WunderPhotos

Upload Photos

1,851,993 photos uploaded!

WunderBlogs® & News

Nearby

Air Quality

  Air Quality AQ Index Pollutant
Not available.

Snow Depth

Station Depth Elevation

Earthquake Activity

City Distance Mag. Time & Date
Minimum magnitude displayed is 2.5.

Coastal Water Temperatures

Place Temperature

Stations

Nearby Weather Stations

Station Location Temp. Windchill Dew Point Humidity Wind Precip. Elev Updated Type